createdAt,value
2022-12-17T00:01:00.918Z,-79
2022-12-17T00:03:28.264Z,-78
2022-12-17T00:05:56.010Z,-76
2022-12-17T00:08:23.487Z,-80
2022-12-17T00:10:50.672Z,-76
2022-12-17T00:13:23.046Z,-80
2022-12-17T00:15:53.693Z,-78
2022-12-17T00:18:21.714Z,-78
2022-12-17T00:20:57.579Z,-79
2022-12-17T00:23:24.704Z,-79
2022-12-17T00:25:56.723Z,-78
2022-12-17T00:28:23.841Z,-78
2022-12-17T00:30:52.596Z,-79
2022-12-17T00:33:19.901Z,-78
2022-12-17T00:35:53.134Z,-78
2022-12-17T00:38:20.621Z,-77
2022-12-17T00:40:54.752Z,-78
2022-12-17T00:43:24.123Z,-78
2022-12-17T00:45:52.530Z,-78
2022-12-17T00:48:19.671Z,-80
2022-12-17T00:50:46.851Z,-79
2022-12-17T00:53:14.166Z,-79
2022-12-17T00:55:42.448Z,-79
2022-12-17T00:58:09.616Z,-79
2022-12-17T01:00:36.856Z,-78
2022-12-17T01:03:11.626Z,-78
2022-12-17T01:05:38.851Z,-77
2022-12-17T01:08:12.008Z,-80
2022-12-17T01:10:39.230Z,-80
2022-12-17T01:13:06.362Z,-76
2022-12-17T01:15:33.510Z,-78
2022-12-17T01:18:00.755Z,-79
2022-12-17T01:20:27.874Z,-79
2022-12-17T01:22:56.530Z,-80
2022-12-17T01:25:24.055Z,-79
2022-12-17T01:27:51.959Z,-80
2022-12-17T01:30:19.227Z,-79
2022-12-17T01:32:46.378Z,-80
2022-12-17T01:35:13.706Z,-80
2022-12-17T01:37:40.945Z,-79
2022-12-17T01:40:09.682Z,-79
2022-12-17T01:42:47.051Z,-78
2022-12-17T01:45:15.024Z,-78
2022-12-17T01:47:56.408Z,-80
2022-12-17T01:50:29.936Z,-79
2022-12-17T01:53:00.935Z,-79
2022-12-17T01:55:28.198Z,-79
2022-12-17T01:57:55.712Z,-77
2022-12-17T02:00:23.146Z,-79
2022-12-17T02:02:50.379Z,-77
2022-12-17T02:05:21.157Z,-78
2022-12-17T02:08:22.780Z,-78
2022-12-17T02:11:09.004Z,-79
2022-12-17T02:13:48.407Z,-79
2022-12-17T02:16:24.165Z,-78
2022-12-17T02:19:02.241Z,-79
2022-12-17T02:21:32.525Z,-79
2022-12-17T02:24:16.122Z,-78
2022-12-17T02:26:47.197Z,-79
2022-12-17T02:29:15.529Z,-79
2022-12-17T02:31:47.562Z,-79
2022-12-17T02:34:15.007Z,-78
2022-12-17T02:36:42.112Z,-77
2022-12-17T02:39:09.533Z,-77
2022-12-17T02:41:57.179Z,-79
2022-12-17T02:44:26.054Z,-78
2022-12-17T02:46:57.054Z,-77
2022-12-17T02:49:24.340Z,-77
2022-12-17T02:51:53.876Z,-78
2022-12-17T02:54:21.024Z,-79
2022-12-17T02:56:50.200Z,-80
2022-12-17T02:59:17.330Z,-77
2022-12-17T03:01:44.635Z,-77
2022-12-17T03:04:11.854Z,-79
2022-12-17T03:06:39.266Z,-77
2022-12-17T03:09:06.432Z,-78
2022-12-17T03:11:33.614Z,-76
2022-12-17T03:14:00.796Z,-78
2022-12-17T03:16:31.470Z,-77
2022-12-17T03:19:03.937Z,-78
2022-12-17T03:21:31.136Z,-79
2022-12-17T03:23:58.767Z,-77
2022-12-17T03:26:25.937Z,-77
2022-12-17T03:28:53.323Z,-78
2022-12-17T03:31:21.103Z,-79
2022-12-17T03:33:48.340Z,-77
2022-12-17T03:36:15.590Z,-77
2022-12-17T03:38:42.729Z,-77
2022-12-17T03:41:09.993Z,-79
2022-12-17T03:43:37.627Z,-77
2022-12-17T03:46:05.245Z,-78
2022-12-17T03:48:32.419Z,-79
2022-12-17T03:50:59.921Z,-79
2022-12-17T03:53:27.061Z,-79
2022-12-17T03:55:54.227Z,-78
2022-12-17T03:58:21.516Z,-78
2022-12-17T04:00:48.644Z,-77
2022-12-17T04:03:16.074Z,-79
2022-12-17T04:05:43.603Z,-79
2022-12-17T04:08:10.740Z,-78
2022-12-17T04:10:37.923Z,-77
2022-12-17T04:13:05.438Z,-76
2022-12-17T04:15:32.683Z,-77
2022-12-17T04:17:59.906Z,-78
2022-12-17T04:20:27.126Z,-78
2022-12-17T04:22:54.332Z,-77
2022-12-17T04:25:21.624Z,-78
2022-12-17T04:27:48.872Z,-77
2022-12-17T04:30:16.221Z,-76
2022-12-17T04:32:43.431Z,-77
2022-12-17T04:35:10.795Z,-77
2022-12-17T04:37:38.024Z,-77
2022-12-17T04:40:05.990Z,-76
2022-12-17T04:42:33.191Z,-77
2022-12-17T04:45:00.396Z,-76
2022-12-17T04:47:27.521Z,-76
2022-12-17T04:49:54.668Z,-79
2022-12-17T04:52:21.868Z,-77
2022-12-17T04:54:49.384Z,-78
2022-12-17T04:57:16.506Z,-76
2022-12-17T04:59:43.687Z,-79
2022-12-17T05:02:11.002Z,-78
2022-12-17T05:04:38.283Z,-79
2022-12-17T05:07:05.419Z,-76
2022-12-17T05:09:32.641Z,-77
2022-12-17T05:12:00.325Z,-76
2022-12-17T05:14:28.148Z,-79
2022-12-17T05:16:56.237Z,-76
2022-12-17T05:19:23.496Z,-77
2022-12-17T05:21:50.804Z,-77
2022-12-17T05:24:18.296Z,-78
2022-12-17T05:26:46.089Z,-79
2022-12-17T05:29:16.060Z,-78
2022-12-17T05:31:43.510Z,-79
2022-12-17T05:34:11.065Z,-76
2022-12-17T05:36:38.374Z,-76
2022-12-17T05:39:05.519Z,-77
2022-12-17T05:41:33.424Z,-78
2022-12-17T05:44:01.025Z,-76
2022-12-17T05:46:29.625Z,-76
2022-12-17T05:48:56.817Z,-77
2022-12-17T05:51:24.098Z,-77
2022-12-17T05:53:51.271Z,-77
2022-12-17T05:56:18.459Z,-78
2022-12-17T05:58:45.610Z,-76
2022-12-17T06:01:12.989Z,-78
2022-12-17T06:03:41.165Z,-78
2022-12-17T06:06:08.742Z,-77
2022-12-17T06:08:35.983Z,-77
2022-12-17T06:11:03.271Z,-76
2022-12-17T06:13:30.419Z,-77
2022-12-17T06:15:57.730Z,-77
2022-12-17T06:18:25.561Z,-78
2022-12-17T06:20:53.277Z,-79
2022-12-17T06:23:20.648Z,-76
2022-12-17T06:25:48.174Z,-78
2022-12-17T06:28:15.345Z,-78
2022-12-17T06:30:42.503Z,-77
2022-12-17T06:33:12.893Z,-80
2022-12-17T06:35:40.604Z,-78
2022-12-17T06:38:08.187Z,-78
2022-12-17T06:40:35.367Z,-79
2022-12-17T06:43:02.498Z,-79
2022-12-17T06:45:29.624Z,-81
2022-12-17T06:48:08.742Z,-79
2022-12-17T06:50:35.925Z,-78
2022-12-17T06:53:06.883Z,-79
2022-12-17T06:55:34.094Z,-78
2022-12-17T06:58:01.726Z,-80
2022-12-17T07:00:29.051Z,-79
2022-12-17T07:02:57.882Z,-80
2022-12-17T07:05:25.417Z,-79
2022-12-17T07:07:59.996Z,-79
2022-12-17T07:10:27.145Z,-80
2022-12-17T07:12:54.300Z,-81
2022-12-17T07:15:21.473Z,-79
2022-12-17T07:18:03.823Z,-79
2022-12-17T07:20:31.152Z,-80
2022-12-17T07:22:58.372Z,-79
2022-12-17T07:25:25.600Z,-79
2022-12-17T07:27:55.035Z,-77
2022-12-17T07:30:23.228Z,-77
2022-12-17T07:33:04.961Z,-80
2022-12-17T07:35:32.661Z,-80
2022-12-17T07:38:02.911Z,-77
2022-12-17T07:40:30.039Z,-77
2022-12-17T07:42:57.729Z,-78
2022-12-17T07:45:25.514Z,-80
2022-12-17T07:47:55.707Z,-78
2022-12-17T07:50:22.850Z,-78
2022-12-17T07:53:01.695Z,-77
2022-12-17T07:55:28.950Z,-80
2022-12-17T07:58:07.860Z,-80
2022-12-17T08:00:35.212Z,-78
2022-12-17T08:03:02.852Z,-79
2022-12-17T08:05:39.028Z,-79
2022-12-17T08:08:12.050Z,-78
2022-12-17T08:10:39.323Z,-79
2022-12-17T08:13:12.424Z,-79
2022-12-17T08:15:41.234Z,-78
2022-12-17T08:18:08.378Z,-78
2022-12-17T08:20:35.741Z,-78
2022-12-17T08:23:05.106Z,-79
2022-12-17T08:25:32.309Z,-79
2022-12-17T08:28:04.620Z,-79
2022-12-17T08:30:37.912Z,-79
2022-12-17T08:33:06.315Z,-79
2022-12-17T08:35:33.529Z,-79
2022-12-17T08:38:06.040Z,-78
2022-12-17T08:40:33.331Z,-79
2022-12-17T08:43:00.516Z,-78
2022-12-17T08:45:27.646Z,-78
2022-12-17T08:48:05.893Z,-80
2022-12-17T08:50:33.098Z,-81
2022-12-17T08:53:02.826Z,-79
2022-12-17T08:55:29.989Z,-79
2022-12-17T08:57:59.157Z,-79
2022-12-17T09:00:26.386Z,-79
2022-12-17T09:03:01.942Z,-79
2022-12-17T09:05:29.458Z,-77
2022-12-17T09:08:06.699Z,-79
2022-12-17T09:10:34.125Z,-79
2022-12-17T09:13:05.275Z,-80
2022-12-17T09:15:32.897Z,-79
2022-12-17T09:18:00.092Z,-77
2022-12-17T09:20:29.519Z,-79
2022-12-17T09:22:57.553Z,-79
2022-12-17T09:25:24.820Z,-79
2022-12-17T09:27:52.004Z,-80
2022-12-17T09:30:19.300Z,-81
2022-12-17T09:32:46.437Z,-78
2022-12-17T09:35:13.781Z,-78
2022-12-17T09:37:41.007Z,-78
2022-12-17T09:40:18.522Z,-78
2022-12-17T09:43:05.677Z,-79
2022-12-17T09:46:26.411Z,-78
2022-12-17T09:49:00.185Z,-80
2022-12-17T09:51:29.798Z,-78
2022-12-17T09:53:57.198Z,-78
2022-12-17T09:56:30.504Z,-77
2022-12-17T09:58:58.535Z,-77
2022-12-17T10:01:35.152Z,-78
2022-12-17T10:04:06.947Z,-78
2022-12-17T10:06:36.340Z,-76
2022-12-17T10:09:14.425Z,-79
2022-12-17T10:11:42.152Z,-79
2022-12-17T10:14:23.705Z,-78
2022-12-17T10:16:50.936Z,-79
2022-12-17T10:19:38.614Z,-78
2022-12-17T10:22:12.771Z,-78
2022-12-17T10:24:46.182Z,-79
2022-12-17T10:27:20.275Z,-82
2022-12-17T10:29:48.565Z,-80
2022-12-17T10:32:15.872Z,-80
2022-12-17T10:34:46.813Z,-80
2022-12-17T10:37:21.550Z,-77
2022-12-17T10:40:02.592Z,-79
2022-12-17T10:42:39.181Z,-77
2022-12-17T10:45:38.491Z,-76
2022-12-17T10:48:19.568Z,-79
2022-12-17T10:50:47.000Z,-79
2022-12-17T10:53:25.141Z,-81
2022-12-17T10:55:57.309Z,-81
2022-12-17T10:58:30.019Z,-80
2022-12-17T11:01:02.070Z,-77
2022-12-17T11:03:50.994Z,-81
2022-12-17T11:06:31.673Z,-80
2022-12-17T11:09:02.843Z,-80
2022-12-17T11:11:30.383Z,-79
2022-12-17T11:14:02.914Z,-80
2022-12-17T11:16:42.514Z,-80
2022-12-17T11:19:09.628Z,-78
2022-12-17T11:21:48.015Z,-80
2022-12-17T11:24:26.650Z,-80
2022-12-17T11:26:57.100Z,-80
2022-12-17T11:29:24.876Z,-80
2022-12-17T11:32:21.664Z,-80
2022-12-17T11:35:06.001Z,-79
2022-12-17T11:38:07.922Z,-81
2022-12-17T11:40:42.718Z,-80
2022-12-17T11:43:35.895Z,-79
2022-12-17T11:46:27.683Z,-80
2022-12-17T11:49:10.075Z,-79
2022-12-17T11:51:53.876Z,-76
2022-12-17T11:54:29.558Z,-78
2022-12-17T11:57:51.398Z,-78
2022-12-17T12:00:24.153Z,-80
2022-12-17T12:03:36.865Z,-79
2022-12-17T12:06:16.466Z,-80
2022-12-17T12:09:21.907Z,-81
2022-12-17T12:12:30.908Z,-80
2022-12-17T12:15:13.038Z,-76
2022-12-17T12:17:40.191Z,-77
2022-12-17T12:20:45.858Z,-79
2022-12-17T12:24:07.359Z,-78
2022-12-17T12:27:13.521Z,-79
2022-12-17T12:30:29.557Z,-81
2022-12-17T12:33:26.806Z,-78
2022-12-17T12:36:02.267Z,-78
2022-12-17T12:38:45.945Z,-77
2022-12-17T12:41:43.097Z,-79
2022-12-17T12:44:49.587Z,-78
2022-12-17T12:47:58.739Z,-79
2022-12-17T12:50:48.983Z,-80
2022-12-17T12:53:16.252Z,-76
2022-12-17T12:55:44.188Z,-78
2022-12-17T12:58:43.948Z,-80
2022-12-17T13:01:12.233Z,-78
2022-12-17T13:03:45.544Z,-79
2022-12-17T13:06:37.674Z,-78
2022-12-17T13:09:16.954Z,-80
2022-12-17T13:11:56.711Z,-75
2022-12-17T13:14:31.423Z,-77
2022-12-17T13:17:28.045Z,-76
2022-12-17T13:19:57.936Z,-79
2022-12-17T13:22:28.286Z,-78
2022-12-17T13:25:18.615Z,-79
2022-12-17T13:27:46.043Z,-79
2022-12-17T13:30:19.079Z,-77
2022-12-17T13:33:24.001Z,-79
2022-12-17T13:36:25.062Z,-78
2022-12-17T13:39:34.068Z,-81
2022-12-17T13:42:01.461Z,-80
2022-12-17T13:44:43.940Z,-81
2022-12-17T13:47:29.240Z,-80
2022-12-17T13:50:32.064Z,-78
2022-12-17T13:52:46.557Z,-78
2022-12-17T13:55:27.309Z,-78
2022-12-17T13:57:55.630Z,-80
2022-12-17T14:00:30.975Z,-77
2022-12-17T14:03:10.855Z,-78
2022-12-17T14:05:43.415Z,-78
2022-12-17T14:08:18.758Z,-79
2022-12-17T14:10:53.681Z,-79
2022-12-17T14:13:21.118Z,-79
2022-12-17T14:15:51.513Z,-82
2022-12-17T14:18:21.682Z,-79
2022-12-17T14:20:55.834Z,-79
2022-12-17T14:23:34.246Z,-81
2022-12-17T14:26:01.900Z,-78
2022-12-17T14:28:50.031Z,-78
2022-12-17T14:31:29.161Z,-78
2022-12-17T14:34:09.091Z,-78
2022-12-17T14:36:43.044Z,-79
2022-12-17T14:39:45.502Z,-78
2022-12-17T14:42:21.617Z,-79
2022-12-17T14:44:51.877Z,-79
2022-12-17T14:47:21.569Z,-81
2022-12-17T14:50:19.397Z,-79
2022-12-17T14:52:50.665Z,-78
2022-12-17T14:55:39.955Z,-78
2022-12-17T14:58:13.229Z,-78
2022-12-17T15:01:06.903Z,-79
2022-12-17T15:03:41.425Z,-78
2022-12-17T15:06:15.583Z,-78
2022-12-17T15:08:47.317Z,-78
2022-12-17T15:11:21.622Z,-78
2022-12-17T15:13:53.033Z,-78
2022-12-17T15:16:23.406Z,-77
2022-12-17T15:18:50.604Z,-79
2022-12-17T15:21:19.433Z,-78
2022-12-17T15:23:47.918Z,-77
2022-12-17T15:26:15.572Z,-78
2022-12-17T15:28:44.102Z,-79
2022-12-17T15:31:14.008Z,-78
2022-12-17T15:33:42.443Z,-78
2022-12-17T15:36:11.959Z,-78
2022-12-17T15:38:39.707Z,-78
2022-12-17T15:41:07.388Z,-77
2022-12-17T15:43:37.621Z,-77
2022-12-17T15:46:04.977Z,-78
2022-12-17T15:48:32.202Z,-77
2022-12-17T15:50:59.358Z,-78
2022-12-17T15:53:26.511Z,-78
2022-12-17T15:56:01.407Z,-78
2022-12-17T15:58:29.434Z,-78
2022-12-17T16:00:57.243Z,-77
2022-12-17T16:03:24.575Z,-79
2022-12-17T16:05:51.928Z,-79
2022-12-17T16:08:19.687Z,-79
2022-12-17T16:10:48.984Z,-79
2022-12-17T16:13:16.440Z,-79
2022-12-17T16:15:46.213Z,-78
2022-12-17T16:18:14.378Z,-78
2022-12-17T16:20:41.515Z,-77
2022-12-17T16:23:08.672Z,-78
2022-12-17T16:25:35.840Z,-76
2022-12-17T16:28:18.484Z,-77
2022-12-17T16:31:06.485Z,-77
2022-12-17T16:33:36.998Z,-77
2022-12-17T16:36:07.307Z,-77
2022-12-17T16:38:34.966Z,-76
2022-12-17T16:41:03.872Z,-76
2022-12-17T16:43:34.644Z,-77
2022-12-17T16:46:06.461Z,-76
2022-12-17T16:48:40.117Z,-77
2022-12-17T16:51:28.425Z,-76
2022-12-17T16:53:57.856Z,-76
2022-12-17T16:56:29.032Z,-77
2022-12-17T16:58:57.629Z,-78
2022-12-17T17:01:29.722Z,-79
2022-12-17T17:03:58.599Z,-77
2022-12-17T17:06:31.721Z,-77
2022-12-17T17:09:07.386Z,-77
2022-12-17T17:11:34.936Z,-78
2022-12-17T17:14:02.201Z,-78
2022-12-17T17:16:29.479Z,-77
2022-12-17T17:18:57.170Z,-77
2022-12-17T17:21:29.819Z,-76
2022-12-17T17:24:00.491Z,-78
2022-12-17T17:26:31.126Z,-76
2022-12-17T17:28:59.515Z,-76
2022-12-17T17:32:01.297Z,-76
2022-12-17T17:34:16.738Z,-77
2022-12-17T17:36:44.844Z,-76
2022-12-17T17:39:12.845Z,-76
2022-12-17T17:41:40.524Z,-76
2022-12-17T17:44:12.638Z,-77
2022-12-17T17:46:40.841Z,-77
2022-12-17T17:49:10.031Z,-76
2022-12-17T17:54:30.389Z,-76
2022-12-17T17:56:57.569Z,-76
2022-12-17T17:59:32.520Z,-76
2022-12-17T18:02:02.371Z,-77
2022-12-17T18:04:29.980Z,-76
2022-12-17T18:09:44.776Z,-76
2022-12-17T18:12:12.101Z,-76
2022-12-17T18:14:46.666Z,-76
2022-12-17T18:17:25.074Z,-76
2022-12-17T18:19:52.323Z,-76
2022-12-17T18:22:19.581Z,-76
2022-12-17T18:24:47.097Z,-77
2022-12-17T18:27:14.275Z,-76
2022-12-17T18:29:41.570Z,-76
2022-12-17T18:32:08.725Z,-76
2022-12-17T18:34:36.153Z,-76
2022-12-17T18:37:03.460Z,-76
2022-12-17T18:39:30.677Z,-76
2022-12-17T18:41:57.865Z,-78
2022-12-17T18:44:26.718Z,-76
2022-12-17T18:46:54.875Z,-76
2022-12-17T18:49:23.769Z,-76
2022-12-17T18:51:51.406Z,-76
2022-12-17T18:54:25.118Z,-77
2022-12-17T18:57:00.836Z,-77
2022-12-17T18:59:30.657Z,-76
2022-12-17T19:01:59.241Z,-76
2022-12-17T19:04:27.686Z,-76
2022-12-17T19:06:55.233Z,-76
2022-12-17T19:09:32.186Z,-75
2022-12-17T19:11:59.293Z,-76
2022-12-17T19:14:26.525Z,-76
2022-12-17T19:16:56.022Z,-76
2022-12-17T19:19:23.572Z,-78
2022-12-17T19:21:52.964Z,-76
2022-12-17T19:24:20.960Z,-76
2022-12-17T19:26:49.907Z,-76
2022-12-17T19:29:20.645Z,-76
2022-12-17T19:31:48.504Z,-76
2022-12-17T19:34:19.107Z,-76
2022-12-17T19:36:46.960Z,-76
2022-12-17T19:39:20.070Z,-76
2022-12-17T19:41:47.496Z,-77
2022-12-17T19:44:17.061Z,-76
2022-12-17T19:46:44.949Z,-76
2022-12-17T19:49:14.960Z,-76
2022-12-17T19:51:43.034Z,-77
2022-12-17T19:54:12.085Z,-76
2022-12-17T19:56:39.436Z,-76
2022-12-17T19:59:09.962Z,-76
2022-12-17T20:01:44.502Z,-76
2022-12-17T20:04:14.504Z,-76
2022-12-17T20:06:43.556Z,-76
2022-12-17T20:09:11.740Z,-76
2022-12-17T20:11:39.749Z,-76
2022-12-17T20:14:18.303Z,-76
2022-12-17T20:16:58.124Z,-76
2022-12-17T20:19:30.442Z,-76
2022-12-17T20:22:00.120Z,-75
2022-12-17T20:24:31.017Z,-75
2022-12-17T20:27:00.274Z,-76
2022-12-17T20:29:27.918Z,-76
2022-12-17T20:31:55.642Z,-76
2022-12-17T20:34:23.529Z,-75
2022-12-17T20:36:52.914Z,-76
2022-12-17T20:39:26.250Z,-76
2022-12-17T20:41:55.366Z,-76
2022-12-17T20:44:22.611Z,-76
2022-12-17T20:46:49.755Z,-76
2022-12-17T20:49:16.916Z,-76
2022-12-17T20:51:44.287Z,-75
2022-12-17T20:54:11.720Z,-76
2022-12-17T20:56:40.095Z,-76
2022-12-17T20:59:13.089Z,-76
2022-12-17T21:01:41.016Z,-76
2022-12-17T21:04:08.473Z,-76
2022-12-17T21:06:42.292Z,-76
2022-12-17T21:09:10.502Z,-76
2022-12-17T21:11:40.052Z,-76
2022-12-17T21:14:13.031Z,-76
2022-12-17T21:16:42.064Z,-76
2022-12-17T21:19:14.565Z,-76
2022-12-17T21:21:41.999Z,-75
2022-12-17T21:24:10.440Z,-76
2022-12-17T21:26:40.801Z,-76
2022-12-17T21:29:09.821Z,-76
2022-12-17T21:31:50.840Z,-76
2022-12-17T21:34:23.067Z,-76
2022-12-17T21:36:51.505Z,-76
2022-12-17T21:39:20.529Z,-76
2022-12-17T21:41:47.940Z,-75
2022-12-17T21:44:15.734Z,-76
2022-12-17T21:46:50.050Z,-76
2022-12-17T21:49:17.793Z,-75
2022-12-17T21:51:45.233Z,-76
2022-12-17T21:54:17.278Z,-76
2022-12-17T21:56:47.100Z,-76
2022-12-17T21:59:14.394Z,-76
2022-12-17T22:01:41.939Z,-77
2022-12-17T22:04:09.800Z,-76
2022-12-17T22:06:48.367Z,-75
2022-12-17T22:09:29.033Z,-76
2022-12-17T22:12:08.381Z,-75
2022-12-17T22:14:35.796Z,-76
2022-12-17T22:17:03.088Z,-76
2022-12-17T22:19:33.375Z,-79
2022-12-17T22:22:00.672Z,-76
2022-12-17T22:24:27.932Z,-76
2022-12-17T22:27:01.308Z,-76
2022-12-17T22:29:28.795Z,-76
2022-12-17T22:31:55.926Z,-75
2022-12-17T22:35:42.435Z,-75
2022-12-17T22:39:49.060Z,-76
2022-12-17T22:44:02.288Z,-76
2022-12-17T22:44:35.709Z,-76
2022-12-17T22:45:32.965Z,-76
2022-12-17T22:48:00.125Z,-76
2022-12-17T22:50:28.557Z,-78
2022-12-17T22:53:05.706Z,-76
2022-12-17T22:55:34.602Z,-75
2022-12-17T22:58:02.377Z,-78
2022-12-17T23:00:35.682Z,-76
2022-12-17T23:03:04.087Z,-76
2022-12-17T23:05:32.584Z,-76
2022-12-17T23:08:00.479Z,-76
2022-12-17T23:10:28.367Z,-75
2022-12-17T23:12:56.306Z,-77
2022-12-17T23:15:43.761Z,-76
2022-12-17T23:18:12.620Z,-75
2022-12-17T23:20:39.789Z,-76
2022-12-17T23:23:06.991Z,-76
2022-12-17T23:25:35.479Z,-76
2022-12-17T23:28:02.948Z,-78
2022-12-17T23:30:30.331Z,-76
2022-12-17T23:32:57.630Z,-76
2022-12-17T23:35:24.949Z,-76
2022-12-17T23:37:52.623Z,-76
2022-12-17T23:40:19.980Z,-76
2022-12-17T23:42:47.204Z,-76
2022-12-17T23:45:14.532Z,-75
2022-12-17T23:47:41.789Z,-76
2022-12-17T23:50:11.150Z,-78
2022-12-17T23:52:39.418Z,-76
2022-12-17T23:55:07.686Z,-77
2022-12-17T23:57:34.936Z,-76
